Time;durP1;ratioP1;P1;durP2;ratioP2;P2;SDS_P1;SDS_P2;PMS_P1;PMS_P2;Temp;Humidity;BMP_temperature;BMP_pressure;BME280_temperature;BME280_humidity;BME280_pressure;Samples;Min_cycle;Max_cycle;Signal;HPM_P1;HPM_P2
2023/06/06 00:02:08;;;;;;;2.00;1.80;;;;;;;15.11;100.00;97707.09;1708936;75;886915;-72
2023/06/06 00:04:39;;;;;;;2.05;1.85;;;;;;;15.11;100.00;97707.84;1700262;75;851346;-72
2023/06/06 00:07:12;;;;;;;1.60;1.50;;;;;;;15.08;100.00;97705.31;1711923;75;677445;-74
2023/06/06 00:09:43;;;;;;;1.60;1.50;;;;;;;15.11;100.00;97702.31;1700891;75;882060;-74
2023/06/06 00:12:14;;;;;;;1.60;1.45;;;;;;;15.10;100.00;97705.56;1712061;75;672061;-71
2023/06/06 00:14:46;;;;;;;1.40;1.30;;;;;;;15.03;100.00;97695.84;1702858;75;740096;-71
2023/06/06 00:17:19;;;;;;;1.20;1.10;;;;;;;15.02;100.00;97699.09;1708409;75;962278;-70
2023/06/06 00:19:52;;;;;;;1.00;1.00;;;;;;;15.04;100.00;97693.81;1702866;75;768278;-71
2023/06/06 00:22:23;;;;;;;1.80;1.70;;;;;;;14.93;100.00;97702.84;1711406;75;694895;-71
2023/06/06 00:24:54;;;;;;;1.60;1.50;;;;;;;15.03;100.00;97706.09;1702948;75;744661;-74
2023/06/06 00:27:25;;;;;;;1.40;1.30;;;;;;;15.03;100.00;97703.34;1711660;75;683309;-72
2023/06/06 00:29:55;;;;;;;1.10;1.05;;;;;;;15.03;100.00;97706.09;1702810;75;745636;-71
2023/06/06 00:32:28;;;;;;;1.35;1.25;;;;;;;15.01;100.00;97700.31;1709310;75;938811;-71
2023/06/06 00:34:59;;;;;;;1.50;1.40;;;;;;;14.99;100.00;97698.09;1699937;75;916904;-70
2023/06/06 00:37:29;;;;;;;2.00;1.80;;;;;;;14.87;100.00;97715.91;1711861;75;675199;-70
2023/06/06 00:39:59;;;;;;;2.65;2.40;;;;;;;14.79;100.00;97712.91;1689565;75;1776796;-69
2023/06/06 00:42:29;;;;;;;2.70;2.15;;;;;;;14.80;100.00;97711.66;1711551;75;720660;-71
2023/06/06 00:45:00;;;;;;;2.10;1.90;;;;;;;14.82;100.00;97702.91;1703405;75;746471;-69
2023/06/06 00:47:33;;;;;;;2.30;1.90;;;;;;;14.86;100.00;97700.63;1712044;75;670925;-72
2023/06/06 00:50:04;;;;;;;2.15;1.70;;;;;;;14.89;100.00;97697.63;1701829;75;812021;-70
2023/06/06 00:52:35;;;;;;;1.50;1.40;;;;;;;14.88;100.00;97693.34;1699038;75;1762057;-71
2023/06/06 00:55:07;;;;;;;1.45;1.30;;;;;;;14.95;100.00;97702.38;1702867;75;747532;-70
2023/06/06 00:57:38;;;;;;;1.50;1.40;;;;;;;14.96;100.00;97695.59;1708256;75;985550;-71
2023/06/06 01:00:11;;;;;;;1.40;1.30;;;;;;;14.92;100.00;97695.84;1700005;75;933857;-71
2023/06/06 01:02:47;;;;;;;2.20;1.70;;;;;;;14.73;100.00;97687.38;1711717;75;675537;-73
2023/06/06 01:05:21;;;;;;;1.70;1.60;;;;;;;14.88;100.00;97687.81;1702957;75;733398;-72
2023/06/06 01:07:53;;;;;;;1.55;1.45;;;;;;;14.96;100.00;97696.34;1711773;75;679049;-73
2023/06/06 01:10:24;;;;;;;2.00;1.50;;;;;;;14.91;100.00;97688.81;1702864;75;755993;-71
2023/06/06 01:13:05;;;;;;;1.80;1.60;;;;;;;14.86;100.00;97689.59;1708897;75;920676;-70
2023/06/06 01:15:44;;;;;;;2.50;2.30;;;;;;;14.80;100.00;97683.34;1702989;75;741565;-74
2023/06/06 01:18:18;;;;;;;1.70;1.60;;;;;;;14.83;100.00;97685.84;1703383;75;727142;-71
2023/06/06 01:20:49;;;;;;;1.50;1.40;;;;;;;14.81;100.00;97691.09;1643580;75;6465013;-69
2023/06/06 01:23:23;;;;;;;1.55;1.40;;;;;;;14.81;100.00;97688.34;1631602;75;6794583;-71
2023/06/06 01:25:53;;;;;;;1.55;1.45;;;;;;;14.84;100.00;97689.34;1687757;75;2717987;-70
2023/06/06 01:28:25;;;;;;;1.30;1.20;;;;;;;14.83;100.00;97682.34;1703568;75;666261;-71
2023/06/06 01:30:55;;;;;;;1.40;1.15;;;;;;;14.83;100.00;97687.84;1711615;75;677145;-70
2023/06/06 01:33:39;;;;;;;1.40;1.30;;;;;;;14.84;100.00;97683.81;1703237;75;714632;-73
2023/06/06 01:36:24;;;;;;;1.90;1.40;;;;;;;14.84;100.00;97681.06;1711732;75;671756;-69
2023/06/06 01:39:05;;;;;;;1.35;1.25;;;;;;;14.83;100.00;97683.09;1702380;75;754371;-68
2023/06/06 01:41:40;;;;;;;1.40;1.30;;;;;;;14.85;100.00;97680.56;1703388;75;683047;-69
2023/06/06 01:44:14;;;;;;;1.65;1.20;;;;;;;14.81;100.00;97685.59;1708596;75;941621;-69
2023/06/06 01:46:44;;;;;;;1.90;1.50;;;;;;;14.74;100.00;97691.59;1703072;75;697138;-69
2023/06/06 01:49:18;;;;;;;2.00;1.80;;;;;;;14.75;100.00;97689.63;1711388;75;690237;-69
2023/06/06 01:51:49;;;;;;;1.60;1.50;;;;;;;14.70;100.00;97683.59;1703287;75;685397;-71
2023/06/06 01:54:22;;;;;;;1.40;1.30;;;;;;;14.71;100.00;97687.13;1710464;75;815922;-72
2023/06/06 01:56:53;;;;;;;1.40;1.30;;;;;;;14.73;100.00;97683.88;1678053;75;2867143;-74
2023/06/06 01:59:23;;;;;;;2.30;1.60;;;;;;;14.59;100.00;97685.63;1710606;75;756059;-74
2023/06/06 02:01:54;;;;;;;2.50;1.60;;;;;;;14.64;100.00;97688.38;1689759;75;1916314;-69
2023/06/06 02:04:24;;;;;;;1.20;1.10;;;;;;;14.67;100.00;97686.59;1684491;75;2974398;-69
2023/06/06 02:06:55;;;;;;;1.90;1.25;;;;;;;14.65;100.00;97689.88;1701212;75;903311;-72
2023/06/06 02:09:28;;;;;;;1.95;1.50;;;;;;;14.61;100.00;97683.13;1711504;75;674943;-71
2023/06/06 02:11:58;;;;;;;1.70;1.50;;;;;;;14.63;100.00;97692.38;1701322;75;823497;-71
2023/06/06 02:14:28;;;;;;;1.35;1.20;;;;;;;14.62;100.00;97679.88;1698975;75;1786780;-74
2023/06/06 02:16:58;;;;;;;1.15;1.05;;;;;;;14.61;100.00;97686.63;1701676;75;781149;-70
2023/06/06 02:19:28;;;;;;;1.10;1.00;;;;;;;14.61;100.00;97683.88;1708205;75;955354;-70
2023/06/06 02:21:58;;;;;;;1.25;1.15;;;;;;;14.63;100.00;97697.16;1677675;75;2793046;-72
2023/06/06 02:24:32;;;;;;;1.65;1.30;;;;;;;14.64;100.00;97696.63;1711210;75;684495;-69
2023/06/06 02:27:03;;;;;;;1.10;1.00;;;;;;;14.65;100.00;97694.66;1688250;75;1854421;-71
2023/06/06 02:29:33;;;;;;;1.40;1.10;;;;;;;14.65;100.00;97698.16;1710673;75;702174;-72
2023/06/06 02:32:04;;;;;;;1.25;1.15;;;;;;;14.69;100.00;97703.38;1702893;75;743041;-71
2023/06/06 02:34:34;;;;;;;1.20;1.10;;;;;;;14.66;100.00;97707.91;1709482;75;910888;-69
2023/06/06 02:37:06;;;;;;;1.10;1.00;;;;;;;14.66;100.00;97701.66;1651391;75;5033309;-73
2023/06/06 02:39:39;;;;;;;3.95;3.55;;;;;;;14.25;100.00;97704.88;1710486;75;781054;-71
2023/06/06 02:42:11;;;;;;;4.65;4.20;;;;;;;14.24;100.00;97703.38;1689723;75;1790527;-71
2023/06/06 02:44:41;;;;;;;3.10;2.80;;;;;;;14.43;100.00;97711.88;1709534;75;910700;-74
2023/06/06 02:47:11;;;;;;;2.45;2.25;;;;;;;14.58;100.00;97706.19;1688802;75;1839854;-69
2023/06/06 02:49:45;;;;;;;5.60;2.35;;;;;;;14.62;100.00;97701.91;1711579;75;674583;-70
2023/06/06 02:52:18;;;;;;;2.60;2.05;;;;;;;14.62;100.00;97707.44;1702856;75;747855;-70
2023/06/06 02:54:51;;;;;;;3.20;2.90;;;;;;;14.70;100.00;97710.41;1712510;75;679025;-70
2023/06/06 02:57:21;;;;;;;4.05;3.30;;;;;;;14.71;100.00;97703.66;1703031;75;744634;-71
2023/06/06 02:59:52;;;;;;;3.45;2.80;;;;;;;14.74;100.00;97710.91;1685987;75;2821201;-70
2023/06/06 03:02:22;;;;;;;2.90;2.60;;;;;;;14.74;100.00;97699.88;1703392;75;720314;-74
2023/06/06 03:04:53;;;;;;;3.80;2.95;;;;;;;14.76;100.00;97699.38;1709843;75;881220;-71
2023/06/06 03:07:23;;;;;;;4.20;2.70;;;;;;;14.63;100.00;97697.16;1690691;75;1769920;-70
2023/06/06 03:09:56;;;;;;;3.80;3.05;;;;;;;14.65;100.00;97695.41;1699490;75;1800596;-70
2023/06/06 03:12:26;;;;;;;2.60;2.35;;;;;;;14.73;100.00;97701.16;1678920;75;2772742;-69
2023/06/06 03:14:59;;;;;;;2.60;2.10;;;;;;;14.77;100.00;97696.13;1711524;75;681724;-70
2023/06/06 03:17:29;;;;;;;1.85;1.65;;;;;;;14.78;100.00;97697.63;1689280;75;1851939;-71
2023/06/06 03:20:00;;;;;;;2.80;2.30;;;;;;;14.73;100.00;97701.16;1711281;75;689941;-71
2023/06/06 03:22:31;;;;;;;2.20;2.00;;;;;;;14.78;100.00;97699.63;1687581;75;1956855;-69
2023/06/06 03:25:04;;;;;;;2.20;1.90;;;;;;;14.80;100.00;97700.63;1711155;75;680555;-71
2023/06/06 03:27:34;;;;;;;3.20;2.25;;;;;;;14.83;100.00;97701.63;1702616;75;738812;-72
2023/06/06 03:30:06;;;;;;;2.35;2.15;;;;;;;14.83;100.00;97699.63;1710538;75;674680;-69
2023/06/06 03:32:36;;;;;;;1.95;1.70;;;;;;;14.84;100.00;97700.34;1700243;75;833861;-74
2023/06/06 03:35:08;;;;;;;4.35;2.25;;;;;;;14.72;100.00;97705.16;1711686;75;677346;-71
2023/06/06 03:37:38;;;;;;;2.70;2.30;;;;;;;14.80;100.00;97708.16;1688603;75;1813729;-68
2023/06/06 03:40:13;;;;;;;3.20;2.70;;;;;;;14.79;100.00;97710.16;1696610;75;1854160;-70
2023/06/06 03:42:44;;;;;;;5.30;3.65;;;;;;;14.68;100.00;97707.41;1700612;75;838922;-72
2023/06/06 03:45:14;;;;;;;3.30;3.00;;;;;;;14.76;100.00;97708.41;1711175;75;684762;-71
2023/06/06 03:47:44;;;;;;;2.50;2.30;;;;;;;14.82;100.00;97706.41;1698177;75;956250;-71
2023/06/06 03:50:18;;;;;;;2.30;2.10;;;;;;;14.77;100.00;97706.38;1710076;75;690974;-70
2023/06/06 03:52:49;;;;;;;2.60;2.40;;;;;;;14.76;100.00;97711.16;1688272;75;1780764;-71
2023/06/06 03:55:22;;;;;;;4.35;2.30;;;;;;;14.66;100.00;97710.66;1697770;75;1812600;-70
2023/06/06 03:57:53;;;;;;;2.10;1.90;;;;;;;14.76;100.00;97700.13;1699115;75;947807;-74
2023/06/06 04:00:23;;;;;;;2.00;1.70;;;;;;;14.81;100.00;97699.38;1710551;75;679432;-72
2023/06/06 04:02:54;;;;;;;2.00;1.80;;;;;;;14.87;100.00;97696.63;1701094;75;749700;-76
2023/06/06 04:05:24;;;;;;;1.55;1.45;;;;;;;14.93;100.00;97707.63;1708283;75;847918;-71
2023/06/06 04:07:54;;;;;;;1.55;1.40;;;;;;;14.96;100.00;97712.13;1605938;75;8716219;-69
2023/06/06 04:10:27;;;;;;;1.30;1.20;;;;;;;14.97;100.00;97711.63;1709744;75;787302;-68
2023/06/06 04:12:57;;;;;;;1.50;1.40;;;;;;;15.01;100.00;97711.34;1687097;75;1924917;-69
2023/06/06 04:15:27;;;;;;;1.35;1.25;;;;;;;15.02;100.00;97712.88;1710903;75;681909;-70
2023/06/06 04:17:57;;;;;;;1.90;1.75;;;;;;;15.04;100.00;97711.13;1677583;75;2745556;-72
2023/06/06 04:20:28;;;;;;;2.30;2.10;;;;;;;15.06;100.00;97713.38;1710850;75;672298;-70
2023/06/06 04:23:00;;;;;;;2.25;1.80;;;;;;;15.08;100.00;97716.34;1700890;75;781734;-67
2023/06/06 04:25:32;;;;;;;3.50;2.90;;;;;;;15.03;100.00;97711.59;1707970;75;958187;-71
2023/06/06 04:28:05;;;;;;;2.70;2.05;;;;;;;15.10;100.00;97708.34;1701273;75;761095;-69
2023/06/06 04:30:36;;;;;;;3.70;3.10;;;;;;;15.17;100.00;97707.06;1711637;75;677962;-73
2023/06/06 04:33:07;;;;;;;3.55;3.25;;;;;;;15.23;100.00;97707.81;1701321;75;742580;-70
2023/06/06 04:35:42;;;;;;;3.30;2.90;;;;;;;15.05;100.00;97709.84;1710575;75;675595;-70
2023/06/06 04:38:12;;;;;;;5.15;4.65;;;;;;;14.71;100.00;97706.41;1666062;75;3710595;-74
2023/06/06 04:40:45;;;;;;;8.15;6.05;;;;;;;14.68;100.00;97704.66;1697102;75;1913379;-75
2023/06/06 04:43:17;;;;;;;5.90;5.25;;;;;;;14.78;100.00;97694.13;1702376;75;743614;-72
2023/06/06 04:45:47;;;;;;;5.40;4.90;;;;;;;14.80;100.00;97699.88;1709543;75;676904;-70
2023/06/06 04:48:18;;;;;;;6.30;5.70;;;;;;;14.73;100.00;97698.38;1688299;75;1875990;-72
2023/06/06 04:50:52;;;;;;;5.80;5.30;;;;;;;14.81;100.00;97702.13;1696733;75;1888873;-73
2023/06/06 04:53:23;;;;;;;6.60;5.55;;;;;;;14.81;100.00;97704.13;1700533;75;784560;-72
2023/06/06 04:55:56;;;;;;;6.20;5.60;;;;;;;14.94;100.00;97698.13;1708980;75;827183;-70
2023/06/06 04:58:28;;;;;;;6.05;5.45;;;;;;;15.02;100.00;97697.06;1701783;75;743052;-74
2023/06/06 05:00:58;;;;;;;5.70;5.10;;;;;;;15.13;100.00;97702.56;1710707;75;679103;-71
2023/06/06 05:03:29;;;;;;;5.85;5.25;;;;;;;14.95;100.00;97702.38;1700419;75;820689;-69
2023/06/06 05:06:02;;;;;;;5.60;5.10;;;;;;;15.02;100.00;97712.88;1709378;75;857496;-74
2023/06/06 05:08:35;;;;;;;5.00;4.50;;;;;;;15.05;100.00;97709.09;1687985;75;1829073;-71
2023/06/06 05:11:09;;;;;;;4.65;4.25;;;;;;;15.16;100.00;97709.09;1711009;75;672682;-75
2023/06/06 05:13:39;;;;;;;5.65;4.20;;;;;;;15.06;100.00;97705.84;1689547;75;1759699;-73
2023/06/06 05:16:10;;;;;;;5.25;4.75;;;;;;;15.06;100.00;97705.09;1710735;75;678333;-69
2023/06/06 05:18:40;;;;;;;6.10;5.50;;;;;;;15.02;100.00;97707.38;1702130;75;748705;-72
2023/06/06 05:21:11;;;;;;;6.70;4.80;;;;;;;15.08;100.00;97705.31;1711001;75;686831;-71
2023/06/06 05:23:42;;;;;;;5.75;5.15;;;;;;;15.21;100.00;97711.06;1700049;75;803075;-71
2023/06/06 05:26:17;;;;;;;7.75;5.10;;;;;;;15.27;100.00;97711.81;1711813;75;667110;-70
2023/06/06 05:28:48;;;;;;;5.20;4.70;;;;;;;15.23;100.00;97705.06;1702072;75;749429;-68
2023/06/06 05:31:20;;;;;;;5.45;4.40;;;;;;;15.52;100.00;97712.72;1710653;75;675276;-72
2023/06/06 05:33:51;;;;;;;3.85;3.45;;;;;;;15.65;100.00;97709.41;1700553;75;755575;-72
2023/06/06 05:36:21;;;;;;;4.55;4.15;;;;;;;15.53;100.00;97710.72;1710025;75;808560;-70
2023/06/06 05:38:51;;;;;;;5.70;3.90;;;;;;;15.54;100.00;97715.72;1701143;75;778172;-72
2023/06/06 05:41:25;;;;;;;6.80;4.30;;;;;;;15.49;100.00;97710.97;1711115;75;683206;-73
2023/06/06 05:43:55;;;;;;;4.95;4.45;;;;;;;15.55;100.00;97722.00;1677260;75;2772789;-71
2023/06/06 05:46:25;;;;;;;4.30;3.75;;;;;;;15.80;100.00;97708.34;1695790;75;1916221;-74
2023/06/06 05:48:55;;;;;;;5.90;4.35;;;;;;;15.71;100.00;97710.16;1701523;75;746725;-69
2023/06/06 05:51:26;;;;;;;5.65;4.15;;;;;;;15.87;100.00;97708.56;1698026;75;1846248;-72
2023/06/06 05:53:56;;;;;;;9.80;4.70;;;;;;;15.67;100.00;97717.19;1699380;75;949423;-71
2023/06/06 05:56:29;;;;;;;5.15;4.65;;;;;;;15.67;100.00;97714.41;1707182;75;979319;-71
2023/06/06 05:59:01;;;;;;;5.50;4.90;;;;;;;15.86;100.00;97711.84;1698602;75;958647;-72
2023/06/06 06:01:31;;;;;;;4.50;4.05;;;;;;;16.17;100.00;97721.69;1685527;75;2824522;-69
2023/06/06 06:04:01;;;;;;;2.45;2.25;;;;;;;16.54;100.00;97717.66;1702523;75;748545;-70
2023/06/06 06:06:32;;;;;;;3.00;2.70;;;;;;;16.47;100.00;97718.97;1710789;75;680664;-69
2023/06/06 06:09:02;;;;;;;3.80;2.95;;;;;;;16.59;100.00;97717.59;1701860;75;751369;-72
2023/06/06 06:11:35;;;;;;;5.50;3.90;;;;;;;16.59;100.00;97725.91;1683610;75;2912916;-71
2023/06/06 06:14:05;;;;;;;3.40;3.10;;;;;;;16.84;100.00;97723.22;1700672;75;796568;-71
2023/06/06 06:16:35;;;;;;;2.70;2.50;;;;;;;17.08;100.00;97724.47;1711399;75;683182;-72
2023/06/06 06:19:06;;;;;;;4.55;3.10;;;;;;;17.04;100.00;97720.00;1702815;75;734175;-73
2023/06/06 06:21:36;;;;;;;2.30;2.10;;;;;;;17.32;100.00;97723.72;1710674;75;671963;-71
2023/06/06 06:24:07;;;;;;;3.50;2.85;;;;;;;17.15;100.00;97719.16;1702644;75;738748;-70
2023/06/06 06:26:40;;;;;;;4.20;3.15;;;;;;;17.17;100.00;97733.22;1707626;75;916722;-71
2023/06/06 06:29:10;;;;;;;3.35;3.05;;;;;;;17.20;100.00;97726.63;1701249;75;750589;-69
2023/06/06 06:31:56;;;;;;;2.85;2.60;;;;;;;17.37;100.00;97734.00;1696533;75;1865952;-70
2023/06/06 06:34:26;;;;;;;4.25;3.10;;;;;;;17.37;100.00;97737.50;1701025;75;750903;-72
2023/06/06 06:36:57;;;;;;;3.40;3.10;;;;;;;17.54;100.00;97725.50;1710459;75;676913;-75
2023/06/06 06:39:27;;;;;;;2.50;2.20;;;;;;;17.79;100.00;97728.97;1702167;75;719773;-71
2023/06/06 06:42:00;;;;;;;2.80;2.50;;;;;;;17.79;100.00;97734.50;1710292;75;671989;-70
2023/06/06 06:44:30;;;;;;;2.40;2.20;;;;;;;18.05;100.00;97728.38;1662342;75;4016620;-70
2023/06/06 06:47:02;;;;;;;4.25;2.90;;;;;;;17.84;100.00;97739.25;1707259;75;984585;-74
2023/06/06 06:49:33;;;;;;;3.30;2.85;;;;;;;18.06;100.00;97729.88;1701446;75;750200;-71
2023/06/06 06:52:04;;;;;;;3.05;2.75;;;;;;;17.97;100.00;97739.34;1708049;75;812355;-72
2023/06/06 06:54:35;;;;;;;2.30;2.10;;;;;;;18.27;100.00;97730.09;1686289;75;1968981;-73
2023/06/06 06:57:09;;;;;;;1.80;1.70;;;;;;;18.55;100.00;97723.38;1698374;75;1708209;-74
2023/06/06 06:59:41;;;;;;;4.70;3.60;;;;;;;17.52;100.00;97733.59;1700552;75;749166;-73
2023/06/06 07:02:11;;;;;;;3.70;3.30;;;;;;;17.74;100.00;97727.00;1708765;75;818397;-68
2023/06/06 07:04:46;;;;;;;2.60;2.40;;;;;;;18.39;100.00;97725.13;1701411;75;746945;-72
2023/06/06 07:07:18;;;;;;;3.05;2.65;;;;;;;18.39;100.00;97725.88;1702853;75;1304239;-70
2023/06/06 07:09:48;;;;;;;2.50;2.30;;;;;;;18.54;100.00;97725.38;1701285;75;745533;-73
2023/06/06 07:12:21;;;;;;;2.90;2.50;;;;;;;18.58;100.00;97725.09;1709661;75;781213;-72
2023/06/06 07:14:52;;;;;;;3.25;2.70;;;;;;;18.91;100.00;97726.59;1701518;75;754928;-73
2023/06/06 07:17:24;;;;;;;2.60;2.40;;;;;;;18.99;100.00;97732.97;1711118;75;682971;-70
2023/06/06 07:19:55;;;;;;;3.00;2.60;;;;;;;19.02;100.00;97726.38;1701347;75;745027;-71
2023/06/06 07:22:25;;;;;;;3.10;2.70;;;;;;;18.84;100.00;97722.41;1710190;75;791649;-70
2023/06/06 07:24:55;;;;;;;2.95;2.50;;;;;;;19.13;100.00;97719.88;1689083;75;1799770;-71
2023/06/06 07:27:29;;;;;;;3.60;3.30;;;;;;;18.39;100.00;97719.59;1685457;75;2893142;-70
2023/06/06 07:29:59;;;;;;;3.70;2.70;;;;;;;18.96;100.00;97722.22;1676266;75;2924150;-68
2023/06/06 07:32:29;;;;;;;2.85;2.60;;;;;;;19.03;100.00;97722.31;1710634;75;816074;-71
2023/06/06 07:35:00;;;;;;;3.45;2.75;;;;;;;19.31;100.00;97721.81;1703958;75;720754;-71
2023/06/06 07:37:30;;;;;;;4.30;3.90;;;;;;;19.22;100.00;97730.56;1712162;75;675129;-72
2023/06/06 07:40:00;;;;;;;3.20;2.90;;;;;;;19.13;100.00;97728.19;1677049;75;2823765;-69
2023/06/06 07:42:33;;;;;;;3.10;2.80;;;;;;;19.23;100.00;97726.50;1711402;75;681202;-74
2023/06/06 07:45:03;;;;;;;3.15;2.80;;;;;;;19.37;100.00;97722.44;1702229;75;754857;-72
2023/06/06 07:47:34;;;;;;;2.60;2.40;;;;;;;19.52;100.00;97726.69;1711524;75;674715;-71
2023/06/06 07:50:04;;;;;;;2.70;2.15;;;;;;;19.65;100.00;97731.50;1701447;75;764431;-70
2023/06/06 07:52:38;;;;;;;4.40;3.10;;;;;;;19.48;100.00;97727.03;1710906;75;683167;-71
2023/06/06 07:55:09;;;;;;;3.10;2.30;;;;;;;19.48;100.00;97723.50;1698961;75;974703;-71
2023/06/06 07:57:45;;;;;;;5.30;3.20;;;;;;;19.25;100.00;97721.16;1697958;75;1759884;-72
2023/06/06 08:00:19;;;;;;;3.85;2.85;;;;;;;19.45;100.00;97721.78;1699932;75;844842;-69
2023/06/06 08:02:49;;;;;;;3.50;2.50;;;;;;;19.44;100.00;97723.84;1698038;75;1817368;-69
2023/06/06 08:05:19;;;;;;;3.70;2.60;;;;;;;19.53;100.00;97717.06;1665042;75;3514898;-69
2023/06/06 08:07:49;;;;;;;3.45;2.55;;;;;;;19.15;100.00;97717.31;1711310;75;674827;-69
2023/06/06 08:10:20;;;;;;;2.95;2.65;;;;;;;19.61;100.00;97717.19;1701533;75;745164;-68
2023/06/06 08:12:53;;;;;;;2.60;2.30;;;;;;;19.61;100.00;97711.66;1698682;75;1706744;-69
2023/06/06 08:15:24;;;;;;;2.70;2.35;;;;;;;19.90;100.00;97704.97;1701260;75;737369;-69
2023/06/06 08:17:57;;;;;;;2.95;2.30;;;;;;;20.06;100.00;97710.69;1711308;75;682950;-73
2023/06/06 08:20:29;;;;;;;2.65;2.35;;;;;;;20.20;100.00;97710.13;1702242;75;729479;-72
2023/06/06 08:22:59;;;;;;;3.50;3.20;;;;;;;20.03;100.00;97709.75;1710774;75;685232;-71
2023/06/06 08:25:29;;;;;;;5.10;3.30;;;;;;;20.10;100.00;97714.63;1686437;75;1982617;-75
2023/06/06 08:28:03;;;;;;;3.00;2.70;;;;;;;19.93;100.00;97711.50;1711326;75;671567;-70
2023/06/06 08:30:33;;;;;;;3.15;2.25;;;;;;;20.11;100.00;97705.03;1701815;75;749151;-71
2023/06/06 08:33:03;;;;;;;3.05;2.75;;;;;;;20.01;100.00;97709.53;1707611;75;946400;-73
2023/06/06 08:35:35;;;;;;;3.10;2.80;;;;;;;20.20;100.00;97701.03;1699683;75;875335;-70
2023/06/06 08:38:05;;;;;;;4.40;3.90;;;;;;;20.19;100.00;97705.84;1706989;75;921430;-70
2023/06/06 08:40:35;;;;;;;3.40;2.80;;;;;;;20.11;100.00;97707.81;1698383;75;964986;-69
2023/06/06 08:43:10;;;;;;;3.50;2.80;;;;;;;20.28;100.00;97712.97;1710585;75;672291;-71
2023/06/06 08:45:46;;;;;;;3.80;2.80;;;;;;;20.46;100.00;97718.88;1698138;75;977042;-73
2023/06/06 08:48:18;;;;;;;3.20;2.90;;;;;;;20.11;100.00;97707.06;1676479;75;2857550;-70
2023/06/06 08:50:49;;;;;;;3.10;2.10;;;;;;;20.24;100.00;97709.03;1710950;75;678583;-71
2023/06/06 08:53:19;;;;;;;3.60;2.90;;;;;;;20.52;100.00;97706.34;1675211;75;2925208;-74
2023/06/06 08:55:50;;;;;;;2.30;1.90;;;;;;;20.80;98.73;97704.91;1698036;75;1783293;-70
2023/06/06 08:58:23;;;;;;;3.40;3.10;;;;;;;20.74;98.06;97699.50;1702307;75;679131;-69
2023/06/06 09:00:53;;;;;;;3.40;2.50;;;;;;;21.18;100.00;97701.66;1697507;75;1710540;-69
2023/06/06 09:03:25;;;;;;;2.80;2.60;;;;;;;20.94;98.14;97697.22;1677654;75;2842121;-72
2023/06/06 09:05:56;;;;;;;3.05;2.40;;;;;;;21.20;98.32;97699.81;1695822;75;1959574;-68
2023/06/06 09:08:27;;;;;;;2.70;2.50;;;;;;;20.85;98.93;97696.44;1701890;75;676444;-71
2023/06/06 09:10:58;;;;;;;3.00;2.70;;;;;;;20.97;100.00;97696.91;1711075;75;676727;-72
2023/06/06 09:13:30;;;;;;;;;;;;;;;20.88;100.00;97702.19;1686329;75;2099884;-70
2023/06/06 09:16:01;;;;;;;3.35;2.50;;;;;;;20.85;100.00;97698.47;1711471;75;678023;-71
2023/06/06 09:18:31;;;;;;;3.50;2.90;;;;;;;21.10;98.37;97693.25;1702530;75;677707;-72
2023/06/06 09:21:04;;;;;;;2.40;2.20;;;;;;;21.50;95.58;97698.50;1711098;75;680627;-68
2023/06/06 09:23:36;;;;;;;2.45;2.25;;;;;;;21.60;90.61;97701.53;1702293;75;751462;-73
2023/06/06 09:26:20;;;;;;;2.80;2.20;;;;;;;21.76;93.24;97688.41;1710506;75;688629;-71
2023/06/06 09:28:53;;;;;;;3.20;2.60;;;;;;;22.06;93.55;97685.72;1699962;75;861893;-70
2023/06/06 09:31:29;;;;;;;3.10;2.30;;;;;;;21.77;88.37;97692.69;1697490;75;1822405;-69
2023/06/06 09:34:01;;;;;;;4.60;3.95;;;;;;;21.68;92.79;97691.16;1676940;75;2828491;-74
2023/06/06 09:36:33;;;;;;;4.55;3.20;;;;;;;21.57;91.77;97689.44;1710959;75;673139;-71
2023/06/06 09:39:11;;;;;;;3.50;2.60;;;;;;;21.26;91.63;97685.72;1698620;75;894382;-69
2023/06/06 09:41:46;;;;;;;3.30;2.70;;;;;;;21.82;93.40;97681.38;1702828;75;678305;-73
2023/06/06 09:44:28;;;;;;;3.70;3.00;;;;;;;21.67;89.71;97686.88;1708843;75;837871;-70
2023/06/06 09:47:03;;;;;;;3.20;2.70;;;;;;;21.66;88.29;97675.00;1702506;75;675373;-73
2023/06/06 09:49:36;;;;;;;3.70;2.45;;;;;;;22.01;87.18;97675.50;1710604;75;675953;-70
2023/06/06 09:52:09;;;;;;;2.70;2.45;;;;;;;22.53;88.46;97658.66;1700895;75;812432;-70
2023/06/06 09:54:45;;;;;;;2.80;2.30;;;;;;;22.50;90.26;97660.50;1709967;75;709854;-69
2023/06/06 09:57:19;;;;;;;3.30;2.85;;;;;;;22.19;86.40;97667.34;1700806;75;771843;-71
2023/06/06 09:59:56;;;;;;;5.80;2.50;;;;;;;21.99;86.52;97664.16;1708990;75;800099;-72
2023/06/06 10:02:34;;;;;;;2.50;2.10;;;;;;;22.39;81.43;97654.56;1702459;75;752808;-70
2023/06/06 10:05:06;;;;;;;2.10;1.80;;;;;;;22.55;82.36;97654.00;1700155;75;848368;-72
2023/06/06 10:07:36;;;;;;;4.10;2.20;;;;;;;22.70;80.79;97650.44;1711094;75;672378;-73
2023/06/06 10:10:08;;;;;;;4.00;2.40;;;;;;;22.56;78.19;97657.53;1702264;75;673454;-69
2023/06/06 10:12:39;;;;;;;3.90;1.90;;;;;;;22.80;82.41;97647.84;1710541;75;674152;-69
2023/06/06 10:15:14;;;;;;;2.10;1.90;;;;;;;22.88;82.66;97650.63;1701306;75;753286;-70
2023/06/06 10:17:46;;;;;;;2.30;2.10;;;;;;;23.10;82.61;97640.75;1710925;75;672984;-74
2023/06/06 10:20:16;;;;;;;3.70;2.60;;;;;;;22.77;78.80;97640.59;1702945;75;676234;-70
2023/06/06 10:22:46;;;;;;;3.00;2.20;;;;;;;23.28;82.98;97639.59;1710466;75;708990;-73
2023/06/06 10:25:19;;;;;;;3.00;2.50;;;;;;;22.62;79.90;97651.78;1699965;67;924478;-72
2023/06/06 10:27:58;;;;;;;3.60;2.40;;;;;;;22.88;83.99;97647.84;1707225;75;949412;-70
2023/06/06 10:30:49;;;;;;;3.00;2.20;;;;;;;22.66;82.93;97649.34;1699588;75;845186;-72
2023/06/06 10:33:37;;;;;;;2.70;2.15;;;;;;;22.70;76.60;97644.13;1702720;75;702846;-70
2023/06/06 10:36:10;;;;;;;3.70;2.80;;;;;;;22.55;80.85;97642.09;1702643;75;671569;-71
2023/06/06 10:38:43;;;;;;;2.05;1.85;;;;;;;22.42;78.36;97639.50;1709144;75;675210;-70
2023/06/06 10:41:21;;;;;;;3.30;2.00;;;;;;;22.32;81.61;97639.28;1686270;75;1940126;-70
2023/06/06 10:43:55;;;;;;;2.70;2.10;;;;;;;22.41;82.60;97643.59;1710865;75;672739;-72
2023/06/06 10:46:28;;;;;;;2.70;2.10;;;;;;;22.15;83.28;97644.66;1703007;75;679004;-69
2023/06/06 10:49:00;;;;;;;2.45;2.20;;;;;;;22.32;84.25;97644.88;1710162;75;689315;-69
2023/06/06 10:51:37;;;;;;;4.70;2.20;;;;;;;22.69;85.56;97639.88;1698393;75;979778;-70
2023/06/06 10:54:22;;;;;;;3.80;1.80;;;;;;;23.33;79.94;97643.44;1702448;75;737484;-69
2023/06/06 10:56:56;;;;;;;1.55;1.45;;;;;;;22.64;76.56;97644.31;1708432;75;923654;-72
2023/06/06 10:59:31;;;;;;;4.10;2.20;;;;;;;22.87;80.00;97637.97;1700966;75;693770;-74
2023/06/06 11:02:14;;;;;;;2.80;2.20;;;;;;;22.70;80.48;97633.69;1711000;75;686140;-69
2023/06/06 11:04:44;;;;;;;2.65;2.40;;;;;;;23.25;81.30;97637.16;1701379;75;772439;-73
2023/06/06 11:07:21;;;;;;;3.45;2.35;;;;;;;23.44;83.29;97643.03;1711081;75;677822;-71
2023/06/06 11:09:51;;;;;;;2.95;2.50;;;;;;;23.45;78.94;97629.81;1701117;75;747404;-70
2023/06/06 11:12:31;;;;;;;3.25;2.75;;;;;;;23.38;78.77;97636.94;1710050;75;821230;-72
2023/06/06 11:15:04;;;;;;;2.60;2.20;;;;;;;22.76;77.36;97631.47;1702354;75;748057;-70
2023/06/06 11:17:50;;;;;;;2.65;2.25;;;;;;;22.95;79.75;97635.91;1711268;75;675368;-73
2023/06/06 11:20:25;;;;;;;2.70;2.10;;;;;;;22.99;76.61;97638.34;1701689;75;757168;-70
2023/06/06 11:23:01;;;;;;;3.70;1.80;;;;;;;23.04;77.72;97632.59;1710888;75;674689;-72
2023/06/06 11:25:32;;;;;;;2.65;2.40;;;;;;;22.71;79.74;97631.69;1710722;75;674970;-70
2023/06/06 11:28:03;;;;;;;2.30;2.10;;;;;;;23.04;79.20;97632.59;1702324;75;673047;-74
2023/06/06 11:30:35;;;;;;;3.00;2.70;;;;;;;22.62;81.95;97626.66;1710170;75;679164;-70
2023/06/06 11:33:11;;;;;;;3.10;2.80;;;;;;;22.43;83.13;97630.56;1699936;75;907544;-69
2023/06/06 11:35:42;;;;;;;;;;;;;;;22.25;82.96;97631.69;1711144;75;681358;-73
2023/06/06 11:38:12;;;;;;;5.00;2.60;;;;;;;22.28;83.41;97627.78;1701671;75;674217;-75
2023/06/06 11:40:44;;;;;;;4.50;2.60;;;;;;;21.98;82.36;97629.19;1710459;75;677272;-71